sensor_id;sensor_type;location;lat;lon;timestamp;temperature;humidity
18934;DHT22;9599;53.706;10.384;2022-12-20T00:01:23;6.80;99.90
18934;DHT22;9599;53.706;10.384;2022-12-20T00:03:53;6.80;99.90
18934;DHT22;9599;53.706;10.384;2022-12-20T00:06:23;6.80;99.90
18934;DHT22;9599;53.706;10.384;2022-12-20T00:08:52;6.80;99.90
18934;DHT22;9599;53.706;10.384;2022-12-20T00:11:21;6.80;99.90
18934;DHT22;9599;53.706;10.384;2022-12-20T00:13:49;6.80;99.90
18934;DHT22;9599;53.706;10.384;2022-12-20T00:16:19;6.80;99.90
18934;DHT22;9599;53.706;10.384;2022-12-20T00:18:50;6.80;99.90
18934;DHT22;9599;53.706;10.384;2022-12-20T00:21:18;6.80;99.90
18934;DHT22;9599;53.706;10.384;2022-12-20T00:23:46;6.90;99.90
18934;DHT22;9599;53.706;10.384;2022-12-20T00:26:16;6.90;99.90
18934;DHT22;9599;53.706;10.384;2022-12-20T00:28:45;6.90;99.90
18934;DHT22;9599;53.706;10.384;2022-12-20T00:31:16;6.90;99.90
18934;DHT22;9599;53.706;10.384;2022-12-20T00:33:46;6.90;99.90
18934;DHT22;9599;53.706;10.384;2022-12-20T00:36:16;6.90;99.90
18934;DHT22;9599;53.706;10.384;2022-12-20T00:38:45;6.90;99.90
18934;DHT22;9599;53.706;10.384;2022-12-20T00:41:15;7.00;99.90
18934;DHT22;9599;53.706;10.384;2022-12-20T00:43:43;7.00;99.90
18934;DHT22;9599;53.706;10.384;2022-12-20T00:46:12;7.00;99.90
18934;DHT22;9599;53.706;10.384;2022-12-20T00:48:41;7.10;99.90
18934;DHT22;9599;53.706;10.384;2022-12-20T00:51:11;7.10;99.90
18934;DHT22;9599;53.706;10.384;2022-12-20T00:53:41;7.10;99.90
18934;DHT22;9599;53.706;10.384;2022-12-20T00:56:10;7.10;99.90
18934;DHT22;9599;53.706;10.384;2022-12-20T00:58:40;7.10;99.90
18934;DHT22;9599;53.706;10.384;2022-12-20T01:01:16;7.10;99.90
18934;DHT22;9599;53.706;10.384;2022-12-20T01:03:47;7.20;99.90
18934;DHT22;9599;53.706;10.384;2022-12-20T01:06:15;7.10;99.90
18934;DHT22;9599;53.706;10.384;2022-12-20T01:08:44;7.20;99.90
18934;DHT22;9599;53.706;10.384;2022-12-20T01:11:14;7.30;99.90
18934;DHT22;9599;53.706;10.384;2022-12-20T01:13:45;7.30;99.90
18934;DHT22;9599;53.706;10.384;2022-12-20T01:16:15;7.30;99.90
18934;DHT22;9599;53.706;10.384;2022-12-20T01:18:44;7.30;99.90
18934;DHT22;9599;53.706;10.384;2022-12-20T01:21:14;7.30;99.90
18934;DHT22;9599;53.706;10.384;2022-12-20T01:23:43;7.40;99.90
18934;DHT22;9599;53.706;10.384;2022-12-20T01:26:13;7.40;99.90
18934;DHT22;9599;53.706;10.384;2022-12-20T01:28:44;7.40;99.90
18934;DHT22;9599;53.706;10.384;2022-12-20T01:31:14;7.40;99.90
18934;DHT22;9599;53.706;10.384;2022-12-20T01:33:44;7.40;99.90
18934;DHT22;9599;53.706;10.384;2022-12-20T01:36:14;7.40;99.90
18934;DHT22;9599;53.706;10.384;2022-12-20T01:38:43;7.40;99.90
18934;DHT22;9599;53.706;10.384;2022-12-20T01:41:14;7.50;99.90
18934;DHT22;9599;53.706;10.384;2022-12-20T01:43:46;7.40;99.90
18934;DHT22;9599;53.706;10.384;2022-12-20T01:46:15;7.50;99.90
18934;DHT22;9599;53.706;10.384;2022-12-20T01:48:47;7.50;99.90
18934;DHT22;9599;53.706;10.384;2022-12-20T01:51:16;7.50;99.90
18934;DHT22;9599;53.706;10.384;2022-12-20T01:53:48;7.50;99.90
18934;DHT22;9599;53.706;10.384;2022-12-20T01:56:18;7.50;99.90
18934;DHT22;9599;53.706;10.384;2022-12-20T01:58:48;7.60;99.90
18934;DHT22;9599;53.706;10.384;2022-12-20T02:01:18;7.60;99.90
18934;DHT22;9599;53.706;10.384;2022-12-20T02:03:49;7.60;99.90
18934;DHT22;9599;53.706;10.384;2022-12-20T02:06:21;7.60;99.90
18934;DHT22;9599;53.706;10.384;2022-12-20T02:08:55;7.60;99.90
18934;DHT22;9599;53.706;10.384;2022-12-20T02:11:36;7.60;99.90
18934;DHT22;9599;53.706;10.384;2022-12-20T02:14:14;7.70;99.90
18934;DHT22;9599;53.706;10.384;2022-12-20T02:16:49;7.70;99.90
18934;DHT22;9599;53.706;10.384;2022-12-20T02:19:51;7.70;99.90
18934;DHT22;9599;53.706;10.384;2022-12-20T02:22:26;7.70;99.90
18934;DHT22;9599;53.706;10.384;2022-12-20T02:25:13;7.80;99.90
18934;DHT22;9599;53.706;10.384;2022-12-20T02:27:50;7.80;99.90
18934;DHT22;9599;53.706;10.384;2022-12-20T02:30:25;7.80;99.90
18934;DHT22;9599;53.706;10.384;2022-12-20T02:32:59;7.80;99.90
18934;DHT22;9599;53.706;10.384;2022-12-20T02:35:33;7.80;99.90
18934;DHT22;9599;53.706;10.384;2022-12-20T02:40:47;7.90;99.90
18934;DHT22;9599;53.706;10.384;2022-12-20T02:43:20;7.90;99.90
18934;DHT22;9599;53.706;10.384;2022-12-20T02:46:05;7.90;99.90
18934;DHT22;9599;53.706;10.384;2022-12-20T02:48:34;7.90;99.90
18934;DHT22;9599;53.706;10.384;2022-12-20T02:51:05;7.90;99.90
18934;DHT22;9599;53.706;10.384;2022-12-20T02:53:34;8.00;99.90
18934;DHT22;9599;53.706;10.384;2022-12-20T02:56:06;8.00;99.90
18934;DHT22;9599;53.706;10.384;2022-12-20T02:58:41;8.00;99.90
18934;DHT22;9599;53.706;10.384;2022-12-20T03:01:16;8.00;99.90
18934;DHT22;9599;53.706;10.384;2022-12-20T03:03:47;8.10;99.90
18934;DHT22;9599;53.706;10.384;2022-12-20T03:06:15;8.10;99.90
18934;DHT22;9599;53.706;10.384;2022-12-20T03:08:43;8.10;99.90
18934;DHT22;9599;53.706;10.384;2022-12-20T03:11:12;8.10;99.90
18934;DHT22;9599;53.706;10.384;2022-12-20T03:13:40;8.10;99.90
18934;DHT22;9599;53.706;10.384;2022-12-20T03:16:09;8.20;99.90
18934;DHT22;9599;53.706;10.384;2022-12-20T03:18:39;8.20;99.90
18934;DHT22;9599;53.706;10.384;2022-12-20T03:21:07;8.20;99.90
18934;DHT22;9599;53.706;10.384;2022-12-20T03:23:35;8.20;99.90
18934;DHT22;9599;53.706;10.384;2022-12-20T03:26:03;8.20;99.90
18934;DHT22;9599;53.706;10.384;2022-12-20T03:28:38;8.20;99.90
18934;DHT22;9599;53.706;10.384;2022-12-20T03:31:08;8.20;99.90
18934;DHT22;9599;53.706;10.384;2022-12-20T03:33:45;8.30;99.90
18934;DHT22;9599;53.706;10.384;2022-12-20T03:36:14;8.20;99.90
18934;DHT22;9599;53.706;10.384;2022-12-20T03:38:42;8.20;99.90
18934;DHT22;9599;53.706;10.384;2022-12-20T03:41:10;8.30;99.90
18934;DHT22;9599;53.706;10.384;2022-12-20T03:43:38;8.30;99.90
18934;DHT22;9599;53.706;10.384;2022-12-20T03:46:06;8.30;99.90
18934;DHT22;9599;53.706;10.384;2022-12-20T03:48:37;8.30;99.90
18934;DHT22;9599;53.706;10.384;2022-12-20T03:51:10;8.30;99.90
18934;DHT22;9599;53.706;10.384;2022-12-20T03:53:38;8.30;99.90
18934;DHT22;9599;53.706;10.384;2022-12-20T03:56:06;8.30;99.90
18934;DHT22;9599;53.706;10.384;2022-12-20T03:58:35;8.40;99.90
18934;DHT22;9599;53.706;10.384;2022-12-20T04:01:16;8.40;99.90
18934;DHT22;9599;53.706;10.384;2022-12-20T04:03:45;8.40;99.90
18934;DHT22;9599;53.706;10.384;2022-12-20T04:06:14;8.40;99.90
18934;DHT22;9599;53.706;10.384;2022-12-20T04:08:43;8.40;99.90
18934;DHT22;9599;53.706;10.384;2022-12-20T04:11:16;8.40;99.90
18934;DHT22;9599;53.706;10.384;2022-12-20T04:14:00;8.40;99.90
18934;DHT22;9599;53.706;10.384;2022-12-20T04:16:29;8.40;99.90
18934;DHT22;9599;53.706;10.384;2022-12-20T04:18:59;8.40;99.90
18934;DHT22;9599;53.706;10.384;2022-12-20T04:21:34;8.50;99.90
18934;DHT22;9599;53.706;10.384;2022-12-20T04:24:04;8.50;99.90
18934;DHT22;9599;53.706;10.384;2022-12-20T04:27:05;8.40;99.90
18934;DHT22;9599;53.706;10.384;2022-12-20T04:29:33;8.50;99.90
18934;DHT22;9599;53.706;10.384;2022-12-20T04:32:02;8.50;99.90
18934;DHT22;9599;53.706;10.384;2022-12-20T04:34:30;8.50;99.90
18934;DHT22;9599;53.706;10.384;2022-12-20T04:37:00;8.50;99.90
18934;DHT22;9599;53.706;10.384;2022-12-20T04:39:38;8.60;99.90
18934;DHT22;9599;53.706;10.384;2022-12-20T04:42:28;8.60;99.90
18934;DHT22;9599;53.706;10.384;2022-12-20T04:44:56;8.60;99.90
18934;DHT22;9599;53.706;10.384;2022-12-20T04:47:27;8.70;99.90
18934;DHT22;9599;53.706;10.384;2022-12-20T04:49:56;8.70;99.90
18934;DHT22;9599;53.706;10.384;2022-12-20T04:52:25;8.70;99.90
18934;DHT22;9599;53.706;10.384;2022-12-20T04:55:15;8.70;99.90
18934;DHT22;9599;53.706;10.384;2022-12-20T04:57:43;8.70;99.90
18934;DHT22;9599;53.706;10.384;2022-12-20T05:00:12;8.70;99.90
18934;DHT22;9599;53.706;10.384;2022-12-20T05:02:44;8.70;99.90
18934;DHT22;9599;53.706;10.384;2022-12-20T05:05:15;8.70;99.90
18934;DHT22;9599;53.706;10.384;2022-12-20T05:07:51;8.70;99.90
18934;DHT22;9599;53.706;10.384;2022-12-20T05:10:20;8.70;99.90
18934;DHT22;9599;53.706;10.384;2022-12-20T05:12:49;8.70;99.90
18934;DHT22;9599;53.706;10.384;2022-12-20T05:15:29;8.70;99.90
18934;DHT22;9599;53.706;10.384;2022-12-20T05:17:58;8.60;99.90
18934;DHT22;9599;53.706;10.384;2022-12-20T05:20:34;8.60;99.90
18934;DHT22;9599;53.706;10.384;2022-12-20T05:23:04;8.60;99.90
18934;DHT22;9599;53.706;10.384;2022-12-20T05:25:55;8.50;99.90
18934;DHT22;9599;53.706;10.384;2022-12-20T05:28:41;8.40;99.90
18934;DHT22;9599;53.706;10.384;2022-12-20T05:31:09;8.40;99.90
18934;DHT22;9599;53.706;10.384;2022-12-20T05:33:37;8.40;99.90
18934;DHT22;9599;53.706;10.384;2022-12-20T05:36:05;8.30;99.90
18934;DHT22;9599;53.706;10.384;2022-12-20T05:38:34;8.40;99.90
18934;DHT22;9599;53.706;10.384;2022-12-20T05:41:09;8.30;99.90
18934;DHT22;9599;53.706;10.384;2022-12-20T05:43:37;8.40;99.90
18934;DHT22;9599;53.706;10.384;2022-12-20T05:46:06;8.30;99.90
18934;DHT22;9599;53.706;10.384;2022-12-20T05:48:46;8.30;99.90
18934;DHT22;9599;53.706;10.384;2022-12-20T05:51:14;8.30;99.90
18934;DHT22;9599;53.706;10.384;2022-12-20T05:53:52;8.30;99.90
18934;DHT22;9599;53.706;10.384;2022-12-20T05:56:30;8.30;99.90
18934;DHT22;9599;53.706;10.384;2022-12-20T05:58:58;8.30;99.90
18934;DHT22;9599;53.706;10.384;2022-12-20T06:01:28;8.30;99.90
18934;DHT22;9599;53.706;10.384;2022-12-20T06:03:58;8.30;99.90
18934;DHT22;9599;53.706;10.384;2022-12-20T06:06:28;8.30;99.90
18934;DHT22;9599;53.706;10.384;2022-12-20T06:08:58;8.20;99.90
18934;DHT22;9599;53.706;10.384;2022-12-20T06:11:37;8.20;99.90
18934;DHT22;9599;53.706;10.384;2022-12-20T06:14:09;8.40;99.90
18934;DHT22;9599;53.706;10.384;2022-12-20T06:16:42;8.30;99.90
18934;DHT22;9599;53.706;10.384;2022-12-20T06:19:11;8.30;99.90
18934;DHT22;9599;53.706;10.384;2022-12-20T06:21:48;8.20;99.90
18934;DHT22;9599;53.706;10.384;2022-12-20T06:24:21;8.20;99.90
18934;DHT22;9599;53.706;10.384;2022-12-20T06:26:51;8.10;99.90
18934;DHT22;9599;53.706;10.384;2022-12-20T06:29:20;8.10;99.90
18934;DHT22;9599;53.706;10.384;2022-12-20T06:31:54;8.00;99.90
18934;DHT22;9599;53.706;10.384;2022-12-20T06:34:22;8.00;99.90
18934;DHT22;9599;53.706;10.384;2022-12-20T06:36:50;8.00;99.90
18934;DHT22;9599;53.706;10.384;2022-12-20T06:39:24;7.90;99.90
18934;DHT22;9599;53.706;10.384;2022-12-20T06:42:01;7.90;99.90
18934;DHT22;9599;53.706;10.384;2022-12-20T06:44:29;7.90;99.90
18934;DHT22;9599;53.706;10.384;2022-12-20T06:46:57;7.90;99.90
18934;DHT22;9599;53.706;10.384;2022-12-20T06:49:26;7.80;99.90
18934;DHT22;9599;53.706;10.384;2022-12-20T06:51:54;7.90;99.90
18934;DHT22;9599;53.706;10.384;2022-12-20T06:54:33;7.90;99.90
18934;DHT22;9599;53.706;10.384;2022-12-20T06:57:01;7.90;99.90
18934;DHT22;9599;53.706;10.384;2022-12-20T06:59:30;7.90;99.90
18934;DHT22;9599;53.706;10.384;2022-12-20T07:01:58;7.90;99.90
18934;DHT22;9599;53.706;10.384;2022-12-20T07:04:26;7.90;99.90
18934;DHT22;9599;53.706;10.384;2022-12-20T07:06:54;7.90;99.90
18934;DHT22;9599;53.706;10.384;2022-12-20T07:09:23;7.90;99.90
18934;DHT22;9599;53.706;10.384;2022-12-20T07:11:52;7.90;99.90
18934;DHT22;9599;53.706;10.384;2022-12-20T07:14:20;7.90;99.90
18934;DHT22;9599;53.706;10.384;2022-12-20T07:16:48;7.90;99.90
18934;DHT22;9599;53.706;10.384;2022-12-20T07:19:16;7.90;99.90
18934;DHT22;9599;53.706;10.384;2022-12-20T07:21:44;7.90;99.90
18934;DHT22;9599;53.706;10.384;2022-12-20T07:24:13;8.00;99.90
18934;DHT22;9599;53.706;10.384;2022-12-20T07:26:43;8.00;99.90
18934;DHT22;9599;53.706;10.384;2022-12-20T07:29:13;8.00;99.90
18934;DHT22;9599;53.706;10.384;2022-12-20T07:31:42;7.90;99.90
18934;DHT22;9599;53.706;10.384;2022-12-20T07:34:10;7.90;99.90
18934;DHT22;9599;53.706;10.384;2022-12-20T07:36:38;8.00;99.90
18934;DHT22;9599;53.706;10.384;2022-12-20T07:39:06;8.00;99.90
18934;DHT22;9599;53.706;10.384;2022-12-20T07:41:33;8.00;99.90
18934;DHT22;9599;53.706;10.384;2022-12-20T07:44:01;8.00;99.90
18934;DHT22;9599;53.706;10.384;2022-12-20T07:46:31;8.00;99.90
18934;DHT22;9599;53.706;10.384;2022-12-20T07:48:59;8.10;99.90
18934;DHT22;9599;53.706;10.384;2022-12-20T07:51:29;8.10;99.90
18934;DHT22;9599;53.706;10.384;2022-12-20T07:54:01;8.10;99.90
18934;DHT22;9599;53.706;10.384;2022-12-20T07:56:32;8.20;99.90
18934;DHT22;9599;53.706;10.384;2022-12-20T07:59:08;8.20;99.90
18934;DHT22;9599;53.706;10.384;2022-12-20T08:01:40;8.20;99.90
18934;DHT22;9599;53.706;10.384;2022-12-20T08:04:13;8.20;99.90
18934;DHT22;9599;53.706;10.384;2022-12-20T08:06:42;8.20;99.90
18934;DHT22;9599;53.706;10.384;2022-12-20T08:09:11;8.30;99.90
18934;DHT22;9599;53.706;10.384;2022-12-20T08:11:43;8.20;99.90
18934;DHT22;9599;53.706;10.384;2022-12-20T08:14:12;8.20;99.90
18934;DHT22;9599;53.706;10.384;2022-12-20T08:16:42;8.30;99.90
18934;DHT22;9599;53.706;10.384;2022-12-20T08:19:10;8.30;99.90
18934;DHT22;9599;53.706;10.384;2022-12-20T08:21:38;8.30;99.90
18934;DHT22;9599;53.706;10.384;2022-12-20T08:24:06;8.30;99.90
18934;DHT22;9599;53.706;10.384;2022-12-20T08:26:37;8.30;99.90
18934;DHT22;9599;53.706;10.384;2022-12-20T08:29:05;8.30;99.90
18934;DHT22;9599;53.706;10.384;2022-12-20T08:31:35;8.20;99.90
18934;DHT22;9599;53.706;10.384;2022-12-20T08:34:05;8.20;99.90
18934;DHT22;9599;53.706;10.384;2022-12-20T08:36:33;8.30;99.90
18934;DHT22;9599;53.706;10.384;2022-12-20T08:39:01;8.30;99.90
18934;DHT22;9599;53.706;10.384;2022-12-20T08:41:29;8.30;99.90
18934;DHT22;9599;53.706;10.384;2022-12-20T08:43:57;8.30;99.90
18934;DHT22;9599;53.706;10.384;2022-12-20T08:46:25;8.30;99.90
18934;DHT22;9599;53.706;10.384;2022-12-20T08:48:53;8.30;99.90
18934;DHT22;9599;53.706;10.384;2022-12-20T08:51:22;8.30;99.90
18934;DHT22;9599;53.706;10.384;2022-12-20T08:53:51;8.30;99.90
18934;DHT22;9599;53.706;10.384;2022-12-20T08:56:19;8.30;99.90
18934;DHT22;9599;53.706;10.384;2022-12-20T08:58:47;8.30;99.90
18934;DHT22;9599;53.706;10.384;2022-12-20T09:01:16;8.40;99.90
18934;DHT22;9599;53.706;10.384;2022-12-20T09:03:45;8.40;99.90
18934;DHT22;9599;53.706;10.384;2022-12-20T09:06:15;8.40;99.90
18934;DHT22;9599;53.706;10.384;2022-12-20T09:08:44;8.50;99.90
18934;DHT22;9599;53.706;10.384;2022-12-20T09:11:14;8.50;99.90
18934;DHT22;9599;53.706;10.384;2022-12-20T09:13:44;8.50;99.90
18934;DHT22;9599;53.706;10.384;2022-12-20T09:16:14;8.60;99.90
18934;DHT22;9599;53.706;10.384;2022-12-20T09:18:42;8.60;99.90
18934;DHT22;9599;53.706;10.384;2022-12-20T09:21:10;8.70;99.90
18934;DHT22;9599;53.706;10.384;2022-12-20T09:23:38;8.70;99.90
18934;DHT22;9599;53.706;10.384;2022-12-20T09:26:10;8.70;99.90
18934;DHT22;9599;53.706;10.384;2022-12-20T09:28:39;8.70;99.90
18934;DHT22;9599;53.706;10.384;2022-12-20T09:31:10;8.70;99.90
18934;DHT22;9599;53.706;10.384;2022-12-20T09:33:38;8.80;99.90
18934;DHT22;9599;53.706;10.384;2022-12-20T09:36:10;8.80;99.90
18934;DHT22;9599;53.706;10.384;2022-12-20T09:38:38;8.80;99.90
18934;DHT22;9599;53.706;10.384;2022-12-20T09:41:15;8.90;99.90
18934;DHT22;9599;53.706;10.384;2022-12-20T09:43:48;8.90;99.90
18934;DHT22;9599;53.706;10.384;2022-12-20T09:46:17;8.90;99.90
18934;DHT22;9599;53.706;10.384;2022-12-20T09:48:45;8.90;99.90
18934;DHT22;9599;53.706;10.384;2022-12-20T09:51:39;8.90;99.90
18934;DHT22;9599;53.706;10.384;2022-12-20T09:54:17;9.00;99.90
18934;DHT22;9599;53.706;10.384;2022-12-20T09:57:00;9.00;99.90
18934;DHT22;9599;53.706;10.384;2022-12-20T09:59:32;9.00;99.90
18934;DHT22;9599;53.706;10.384;2022-12-20T10:02:08;9.00;99.90
18934;DHT22;9599;53.706;10.384;2022-12-20T10:04:58;9.10;99.90
18934;DHT22;9599;53.706;10.384;2022-12-20T10:07:33;9.10;99.90
18934;DHT22;9599;53.706;10.384;2022-12-20T10:10:29;9.20;99.90
18934;DHT22;9599;53.706;10.384;2022-12-20T10:13:09;9.20;99.90
18934;DHT22;9599;53.706;10.384;2022-12-20T10:15:44;9.30;99.90
18934;DHT22;9599;53.706;10.384;2022-12-20T10:18:24;9.30;99.90
18934;DHT22;9599;53.706;10.384;2022-12-20T10:20:57;9.30;99.90
18934;DHT22;9599;53.706;10.384;2022-12-20T10:23:31;9.30;99.90
18934;DHT22;9599;53.706;10.384;2022-12-20T10:26:00;9.30;99.90
18934;DHT22;9599;53.706;10.384;2022-12-20T10:28:33;9.40;99.90
18934;DHT22;9599;53.706;10.384;2022-12-20T10:31:03;9.40;99.90
18934;DHT22;9599;53.706;10.384;2022-12-20T10:33:32;9.40;99.90
18934;DHT22;9599;53.706;10.384;2022-12-20T10:36:21;9.40;99.90
18934;DHT22;9599;53.706;10.384;2022-12-20T10:38:51;9.50;99.90
18934;DHT22;9599;53.706;10.384;2022-12-20T10:41:22;9.50;99.90
18934;DHT22;9599;53.706;10.384;2022-12-20T10:43:55;9.50;99.90
18934;DHT22;9599;53.706;10.384;2022-12-20T10:46:34;9.60;99.90
18934;DHT22;9599;53.706;10.384;2022-12-20T10:49:22;9.60;99.90
18934;DHT22;9599;53.706;10.384;2022-12-20T10:51:55;9.60;99.90
18934;DHT22;9599;53.706;10.384;2022-12-20T10:54:27;9.60;99.90
18934;DHT22;9599;53.706;10.384;2022-12-20T10:56:58;9.60;99.90
18934;DHT22;9599;53.706;10.384;2022-12-20T10:59:34;9.70;99.90
18934;DHT22;9599;53.706;10.384;2022-12-20T11:02:24;9.70;99.90
18934;DHT22;9599;53.706;10.384;2022-12-20T11:05:02;9.70;99.90
18934;DHT22;9599;53.706;10.384;2022-12-20T11:07:53;9.80;99.90
18934;DHT22;9599;53.706;10.384;2022-12-20T11:10:41;9.80;99.90
18934;DHT22;9599;53.706;10.384;2022-12-20T11:13:20;9.70;99.90
18934;DHT22;9599;53.706;10.384;2022-12-20T11:15:52;9.80;99.90
18934;DHT22;9599;53.706;10.384;2022-12-20T11:18:30;9.80;99.90
18934;DHT22;9599;53.706;10.384;2022-12-20T11:21:12;9.90;99.90
18934;DHT22;9599;53.706;10.384;2022-12-20T11:23:50;9.90;99.90
18934;DHT22;9599;53.706;10.384;2022-12-20T11:26:29;10.00;99.90
18934;DHT22;9599;53.706;10.384;2022-12-20T11:29:16;9.90;99.90
18934;DHT22;9599;53.706;10.384;2022-12-20T11:31:57;9.90;99.90
18934;DHT22;9599;53.706;10.384;2022-12-20T11:34:38;9.90;99.90
18934;DHT22;9599;53.706;10.384;2022-12-20T11:37:18;9.90;99.90
18934;DHT22;9599;53.706;10.384;2022-12-20T11:40:02;10.00;99.90
18934;DHT22;9599;53.706;10.384;2022-12-20T11:42:41;10.00;99.90
18934;DHT22;9599;53.706;10.384;2022-12-20T11:45:20;10.00;99.90
18934;DHT22;9599;53.706;10.384;2022-12-20T11:48:16;10.00;99.90
18934;DHT22;9599;53.706;10.384;2022-12-20T11:50:57;10.00;99.90
18934;DHT22;9599;53.706;10.384;2022-12-20T11:53:31;10.00;99.90
18934;DHT22;9599;53.706;10.384;2022-12-20T11:56:06;10.00;99.90
18934;DHT22;9599;53.706;10.384;2022-12-20T11:58:49;10.00;99.90
18934;DHT22;9599;53.706;10.384;2022-12-20T12:01:21;10.00;99.90
18934;DHT22;9599;53.706;10.384;2022-12-20T12:04:00;10.00;99.90
18934;DHT22;9599;53.706;10.384;2022-12-20T12:06:33;9.90;99.90
18934;DHT22;9599;53.706;10.384;2022-12-20T12:09:11;10.00;99.90
18934;DHT22;9599;53.706;10.384;2022-12-20T12:11:43;9.90;99.90
18934;DHT22;9599;53.706;10.384;2022-12-20T12:14:41;9.90;99.90
18934;DHT22;9599;53.706;10.384;2022-12-20T12:17:15;10.00;99.90
18934;DHT22;9599;53.706;10.384;2022-12-20T12:19:49;9.90;99.90
18934;DHT22;9599;53.706;10.384;2022-12-20T12:22:22;10.00;99.90
18934;DHT22;9599;53.706;10.384;2022-12-20T12:24:54;10.00;99.90
18934;DHT22;9599;53.706;10.384;2022-12-20T12:27:26;9.90;99.90
18934;DHT22;9599;53.706;10.384;2022-12-20T12:29:57;9.90;99.90
18934;DHT22;9599;53.706;10.384;2022-12-20T12:32:30;9.90;99.90
18934;DHT22;9599;53.706;10.384;2022-12-20T12:35:15;9.80;99.90
18934;DHT22;9599;53.706;10.384;2022-12-20T12:37:54;9.80;99.90
18934;DHT22;9599;53.706;10.384;2022-12-20T12:40:49;9.80;99.90
18934;DHT22;9599;53.706;10.384;2022-12-20T12:43:44;9.80;99.90
18934;DHT22;9599;53.706;10.384;2022-12-20T12:46:15;9.80;99.90
18934;DHT22;9599;53.706;10.384;2022-12-20T12:48:48;9.70;99.90
18934;DHT22;9599;53.706;10.384;2022-12-20T12:51:24;9.70;99.90
18934;DHT22;9599;53.706;10.384;2022-12-20T12:54:02;9.70;99.90
18934;DHT22;9599;53.706;10.384;2022-12-20T12:56:37;9.80;99.90
18934;DHT22;9599;53.706;10.384;2022-12-20T12:59:40;9.70;99.90
18934;DHT22;9599;53.706;10.384;2022-12-20T13:02:32;9.70;99.90
18934;DHT22;9599;53.706;10.384;2022-12-20T13:05:33;9.60;99.90
18934;DHT22;9599;53.706;10.384;2022-12-20T13:08:08;9.60;99.90
18934;DHT22;9599;53.706;10.384;2022-12-20T13:10:58;9.50;99.90
18934;DHT22;9599;53.706;10.384;2022-12-20T13:13:26;9.60;99.90
18934;DHT22;9599;53.706;10.384;2022-12-20T13:16:08;9.60;99.90
18934;DHT22;9599;53.706;10.384;2022-12-20T13:18:37;9.60;99.90
18934;DHT22;9599;53.706;10.384;2022-12-20T13:21:30;9.60;99.90
18934;DHT22;9599;53.706;10.384;2022-12-20T13:27:15;9.60;99.90
18934;DHT22;9599;53.706;10.384;2022-12-20T13:29:57;9.70;99.90
18934;DHT22;9599;53.706;10.384;2022-12-20T13:32:55;9.70;99.90
18934;DHT22;9599;53.706;10.384;2022-12-20T13:35:28;9.80;99.90
18934;DHT22;9599;53.706;10.384;2022-12-20T13:37:58;9.70;99.90
18934;DHT22;9599;53.706;10.384;2022-12-20T13:40:34;9.70;99.90
18934;DHT22;9599;53.706;10.384;2022-12-20T13:43:09;9.60;99.90
18934;DHT22;9599;53.706;10.384;2022-12-20T13:45:39;9.70;99.90
18934;DHT22;9599;53.706;10.384;2022-12-20T13:48:13;9.70;99.90
18934;DHT22;9599;53.706;10.384;2022-12-20T13:50:48;9.70;99.90
18934;DHT22;9599;53.706;10.384;2022-12-20T13:53:19;9.70;99.90
18934;DHT22;9599;53.706;10.384;2022-12-20T13:55:48;9.60;99.90
18934;DHT22;9599;53.706;10.384;2022-12-20T13:58:19;9.60;99.90
18934;DHT22;9599;53.706;10.384;2022-12-20T14:00:49;9.60;99.90
18934;DHT22;9599;53.706;10.384;2022-12-20T14:03:22;9.60;99.90
18934;DHT22;9599;53.706;10.384;2022-12-20T14:05:56;9.60;99.90
18934;DHT22;9599;53.706;10.384;2022-12-20T14:08:26;9.60;99.90
18934;DHT22;9599;53.706;10.384;2022-12-20T14:11:06;9.50;99.90
18934;DHT22;9599;53.706;10.384;2022-12-20T14:13:36;9.50;99.90
18934;DHT22;9599;53.706;10.384;2022-12-20T14:16:09;9.60;99.90
18934;DHT22;9599;53.706;10.384;2022-12-20T14:18:40;9.50;99.90
18934;DHT22;9599;53.706;10.384;2022-12-20T14:21:10;9.50;99.90
18934;DHT22;9599;53.706;10.384;2022-12-20T14:23:40;9.50;99.90
18934;DHT22;9599;53.706;10.384;2022-12-20T14:26:13;9.50;99.90
18934;DHT22;9599;53.706;10.384;2022-12-20T14:28:44;9.50;99.90
18934;DHT22;9599;53.706;10.384;2022-12-20T14:31:24;9.60;99.90
18934;DHT22;9599;53.706;10.384;2022-12-20T14:34:01;9.50;99.90
18934;DHT22;9599;53.706;10.384;2022-12-20T14:36:30;9.50;99.90
18934;DHT22;9599;53.706;10.384;2022-12-20T14:38:59;9.50;99.90
18934;DHT22;9599;53.706;10.384;2022-12-20T14:41:35;9.50;99.90
18934;DHT22;9599;53.706;10.384;2022-12-20T14:44:15;9.50;99.90
18934;DHT22;9599;53.706;10.384;2022-12-20T14:46:48;9.50;99.90
18934;DHT22;9599;53.706;10.384;2022-12-20T14:49:20;9.50;99.90
18934;DHT22;9599;53.706;10.384;2022-12-20T14:51:49;9.60;99.90
18934;DHT22;9599;53.706;10.384;2022-12-20T14:54:19;9.60;99.90
18934;DHT22;9599;53.706;10.384;2022-12-20T14:57:10;9.60;99.90
18934;DHT22;9599;53.706;10.384;2022-12-20T14:59:58;9.60;99.90
18934;DHT22;9599;53.706;10.384;2022-12-20T15:02:34;9.60;99.90
18934;DHT22;9599;53.706;10.384;2022-12-20T15:07:54;9.60;99.90
18934;DHT22;9599;53.706;10.384;2022-12-20T15:10:21;9.50;99.90
18934;DHT22;9599;53.706;10.384;2022-12-20T15:12:50;9.50;99.90
18934;DHT22;9599;53.706;10.384;2022-12-20T15:15:19;9.50;99.90
18934;DHT22;9599;53.706;10.384;2022-12-20T15:17:55;9.50;99.90
18934;DHT22;9599;53.706;10.384;2022-12-20T15:20:23;9.60;99.90
18934;DHT22;9599;53.706;10.384;2022-12-20T15:22:51;9.50;99.90
18934;DHT22;9599;53.706;10.384;2022-12-20T15:25:18;9.50;99.90
18934;DHT22;9599;53.706;10.384;2022-12-20T15:27:46;9.50;99.90
18934;DHT22;9599;53.706;10.384;2022-12-20T15:30:15;9.40;99.90
18934;DHT22;9599;53.706;10.384;2022-12-20T15:32:45;9.40;99.90
18934;DHT22;9599;53.706;10.384;2022-12-20T15:35:21;9.40;99.90
18934;DHT22;9599;53.706;10.384;2022-12-20T15:37:50;9.40;99.90
18934;DHT22;9599;53.706;10.384;2022-12-20T15:40:18;9.50;99.90
18934;DHT22;9599;53.706;10.384;2022-12-20T15:42:46;9.40;99.90
18934;DHT22;9599;53.706;10.384;2022-12-20T15:45:14;9.40;99.90
18934;DHT22;9599;53.706;10.384;2022-12-20T15:47:42;9.40;99.90
18934;DHT22;9599;53.706;10.384;2022-12-20T15:50:12;9.40;99.90
18934;DHT22;9599;53.706;10.384;2022-12-20T15:52:40;9.40;99.90
18934;DHT22;9599;53.706;10.384;2022-12-20T15:55:09;9.40;99.90
18934;DHT22;9599;53.706;10.384;2022-12-20T15:57:37;9.40;99.90
18934;DHT22;9599;53.706;10.384;2022-12-20T16:00:06;9.40;99.90
18934;DHT22;9599;53.706;10.384;2022-12-20T16:02:38;9.40;99.90
18934;DHT22;9599;53.706;10.384;2022-12-20T16:05:09;9.40;99.90
18934;DHT22;9599;53.706;10.384;2022-12-20T16:07:40;9.40;99.90
18934;DHT22;9599;53.706;10.384;2022-12-20T16:10:12;9.40;99.90
18934;DHT22;9599;53.706;10.384;2022-12-20T16:12:40;9.40;99.90
18934;DHT22;9599;53.706;10.384;2022-12-20T16:15:20;9.40;99.90
18934;DHT22;9599;53.706;10.384;2022-12-20T16:17:48;9.40;99.90
18934;DHT22;9599;53.706;10.384;2022-12-20T16:20:16;9.40;99.90
18934;DHT22;9599;53.706;10.384;2022-12-20T16:22:46;9.40;99.90
18934;DHT22;9599;53.706;10.384;2022-12-20T16:25:26;9.40;99.90
18934;DHT22;9599;53.706;10.384;2022-12-20T16:27:54;9.40;99.90
18934;DHT22;9599;53.706;10.384;2022-12-20T16:30:22;9.50;99.90